sensor_id;sensor_type;location;lat;lon;timestamp;P1;durP1;ratioP1;P2;durP2;ratioP2
53056;SDS011;38940;50.096;4.012;2023-05-10T00:00:21;7.50;;;2.55;;
53056;SDS011;38940;50.096;4.012;2023-05-10T00:02:48;7.67;;;3.10;;
53056;SDS011;38940;50.096;4.012;2023-05-10T00:05:14;7.43;;;2.53;;
53056;SDS011;38940;50.096;4.012;2023-05-10T00:07:40;6.10;;;2.83;;
53056;SDS011;38940;50.096;4.012;2023-05-10T00:10:09;5.72;;;2.85;;
53056;SDS011;38940;50.096;4.012;2023-05-10T00:12:36;5.00;;;2.75;;
53056;SDS011;38940;50.096;4.012;2023-05-10T00:15:02;4.50;;;2.35;;
53056;SDS011;38940;50.096;4.012;2023-05-10T00:17:28;7.10;;;2.70;;
53056;SDS011;38940;50.096;4.012;2023-05-10T00:19:54;5.10;;;2.42;;
53056;SDS011;38940;50.096;4.012;2023-05-10T00:22:20;6.88;;;2.90;;
53056;SDS011;38940;50.096;4.012;2023-05-10T00:24:46;6.70;;;2.83;;
53056;SDS011;38940;50.096;4.012;2023-05-10T00:27:12;6.88;;;2.90;;
53056;SDS011;38940;50.096;4.012;2023-05-10T00:29:38;5.87;;;2.87;;
53056;SDS011;38940;50.096;4.012;2023-05-10T00:32:04;6.45;;;2.80;;
53056;SDS011;38940;50.096;4.012;2023-05-10T00:34:30;8.50;;;2.70;;
53056;SDS011;38940;50.096;4.012;2023-05-10T00:36:56;7.50;;;2.80;;
53056;SDS011;38940;50.096;4.012;2023-05-10T00:39:22;7.07;;;3.20;;
53056;SDS011;38940;50.096;4.012;2023-05-10T00:41:49;5.90;;;3.10;;
53056;SDS011;38940;50.096;4.012;2023-05-10T00:44:15;8.15;;;3.20;;
53056;SDS011;38940;50.096;4.012;2023-05-10T00:46:41;6.95;;;3.13;;
53056;SDS011;38940;50.096;4.012;2023-05-10T00:49:07;8.35;;;3.35;;
53056;SDS011;38940;50.096;4.012;2023-05-10T00:51:33;8.38;;;3.25;;
53056;SDS011;38940;50.096;4.012;2023-05-10T00:53:59;6.30;;;2.70;;
53056;SDS011;38940;50.096;4.012;2023-05-10T00:56:25;7.57;;;3.45;;
53056;SDS011;38940;50.096;4.012;2023-05-10T00:58:53;5.03;;;2.97;;
53056;SDS011;38940;50.096;4.012;2023-05-10T01:01:19;8.50;;;3.50;;
53056;SDS011;38940;50.096;4.012;2023-05-10T01:03:46;6.67;;;3.10;;
53056;SDS011;38940;50.096;4.012;2023-05-10T01:06:12;7.78;;;3.00;;
53056;SDS011;38940;50.096;4.012;2023-05-10T01:08:38;7.38;;;3.40;;
53056;SDS011;38940;50.096;4.012;2023-05-10T01:11:05;3.58;;;2.60;;
53056;SDS011;38940;50.096;4.012;2023-05-10T01:13:37;4.07;;;2.72;;
53056;SDS011;38940;50.096;4.012;2023-05-10T01:16:04;3.47;;;2.35;;
53056;SDS011;38940;50.096;4.012;2023-05-10T01:18:33;5.97;;;2.55;;
53056;SDS011;38940;50.096;4.012;2023-05-10T01:21:05;5.70;;;2.60;;
53056;SDS011;38940;50.096;4.012;2023-05-10T01:26:14;5.03;;;2.67;;
53056;SDS011;38940;50.096;4.012;2023-05-10T01:31:40;4.25;;;2.60;;
53056;SDS011;38940;50.096;4.012;2023-05-10T01:34:09;7.40;;;2.70;;
53056;SDS011;38940;50.096;4.012;2023-05-10T01:39:24;3.83;;;2.28;;
53056;SDS011;38940;50.096;4.012;2023-05-10T01:48:08;5.30;;;2.67;;
53056;SDS011;38940;50.096;4.012;2023-05-10T01:50:02;5.22;;;2.90;;
53056;SDS011;38940;50.096;4.012;2023-05-10T01:52:33;6.22;;;3.00;;
53056;SDS011;38940;50.096;4.012;2023-05-10T01:55:05;6.03;;;2.87;;
53056;SDS011;38940;50.096;4.012;2023-05-10T01:57:35;9.07;;;3.00;;
53056;SDS011;38940;50.096;4.012;2023-05-10T02:00:04;6.30;;;3.00;;
53056;SDS011;38940;50.096;4.012;2023-05-10T02:02:33;8.95;;;3.00;;
53056;SDS011;38940;50.096;4.012;2023-05-10T02:05:00;7.18;;;2.90;;
53056;SDS011;38940;50.096;4.012;2023-05-10T02:07:28;7.40;;;2.58;;
53056;SDS011;38940;50.096;4.012;2023-05-10T02:09:54;5.20;;;2.72;;
53056;SDS011;38940;50.096;4.012;2023-05-10T02:12:21;5.97;;;2.17;;
53056;SDS011;38940;50.096;4.012;2023-05-10T02:14:48;6.55;;;2.70;;
53056;SDS011;38940;50.096;4.012;2023-05-10T02:17:15;5.07;;;2.50;;
53056;SDS011;38940;50.096;4.012;2023-05-10T02:19:41;4.30;;;2.00;;
53056;SDS011;38940;50.096;4.012;2023-05-10T02:22:09;5.35;;;1.92;;
53056;SDS011;38940;50.096;4.012;2023-05-10T02:24:35;3.95;;;1.95;;
53056;SDS011;38940;50.096;4.012;2023-05-10T02:27:02;2.83;;;1.50;;
53056;SDS011;38940;50.096;4.012;2023-05-10T02:29:29;5.00;;;1.60;;
53056;SDS011;38940;50.096;4.012;2023-05-10T02:31:55;3.03;;;1.10;;
53056;SDS011;38940;50.096;4.012;2023-05-10T02:34:23;2.20;;;1.20;;
53056;SDS011;38940;50.096;4.012;2023-05-10T02:36:49;2.35;;;1.17;;
53056;SDS011;38940;50.096;4.012;2023-05-10T02:39:16;4.53;;;1.30;;
53056;SDS011;38940;50.096;4.012;2023-05-10T02:41:44;2.63;;;0.90;;
53056;SDS011;38940;50.096;4.012;2023-05-10T02:44:11;2.00;;;1.00;;
53056;SDS011;38940;50.096;4.012;2023-05-10T02:46:37;3.78;;;1.00;;
53056;SDS011;38940;50.096;4.012;2023-05-10T02:49:03;3.05;;;0.90;;
53056;SDS011;38940;50.096;4.012;2023-05-10T02:51:30;2.22;;;0.90;;
53056;SDS011;38940;50.096;4.012;2023-05-10T02:54:00;3.22;;;0.90;;
53056;SDS011;38940;50.096;4.012;2023-05-10T02:56:31;2.80;;;1.00;;
53056;SDS011;38940;50.096;4.012;2023-05-10T02:58:57;3.30;;;0.90;;
53056;SDS011;38940;50.096;4.012;2023-05-10T03:01:23;2.78;;;1.10;;
53056;SDS011;38940;50.096;4.012;2023-05-10T03:03:49;3.20;;;1.00;;
53056;SDS011;38940;50.096;4.012;2023-05-10T03:06:15;3.20;;;0.88;;
53056;SDS011;38940;50.096;4.012;2023-05-10T03:08:42;4.63;;;1.02;;
53056;SDS011;38940;50.096;4.012;2023-05-10T03:14:40;4.10;;;1.10;;
53056;SDS011;38940;50.096;4.012;2023-05-10T03:16:41;4.10;;;0.90;;
53056;SDS011;38940;50.096;4.012;2023-05-10T03:19:16;4.83;;;0.90;;
53056;SDS011;38940;50.096;4.012;2023-05-10T03:21:44;3.65;;;1.00;;
53056;SDS011;38940;50.096;4.012;2023-05-10T03:24:13;6.72;;;1.30;;
53056;SDS011;38940;50.096;4.012;2023-05-10T03:26:40;4.15;;;1.38;;
53056;SDS011;38940;50.096;4.012;2023-05-10T03:29:10;5.10;;;0.97;;
53056;SDS011;38940;50.096;4.012;2023-05-10T03:31:37;5.32;;;1.02;;
53056;SDS011;38940;50.096;4.012;2023-05-10T03:34:03;7.03;;;1.38;;
53056;SDS011;38940;50.096;4.012;2023-05-10T03:36:30;5.78;;;1.08;;
53056;SDS011;38940;50.096;4.012;2023-05-10T03:38:56;4.88;;;1.10;;
53056;SDS011;38940;50.096;4.012;2023-05-10T03:41:21;7.77;;;1.43;;
53056;SDS011;38940;50.096;4.012;2023-05-10T03:43:47;5.72;;;1.20;;
53056;SDS011;38940;50.096;4.012;2023-05-10T03:46:13;7.03;;;1.27;;
53056;SDS011;38940;50.096;4.012;2023-05-10T03:48:40;7.03;;;1.38;;
53056;SDS011;38940;50.096;4.012;2023-05-10T03:51:06;5.20;;;1.15;;
53056;SDS011;38940;50.096;4.012;2023-05-10T03:53:32;7.20;;;1.20;;
53056;SDS011;38940;50.096;4.012;2023-05-10T03:55:58;6.03;;;1.10;;
53056;SDS011;38940;50.096;4.012;2023-05-10T03:58:24;6.30;;;1.10;;
53056;SDS011;38940;50.096;4.012;2023-05-10T04:00:50;10.07;;;1.10;;
53056;SDS011;38940;50.096;4.012;2023-05-10T04:03:16;6.57;;;1.43;;
53056;SDS011;38940;50.096;4.012;2023-05-10T04:05:42;6.30;;;1.25;;
53056;SDS011;38940;50.096;4.012;2023-05-10T04:08:08;6.90;;;1.40;;
53056;SDS011;38940;50.096;4.012;2023-05-10T04:10:35;6.32;;;1.10;;
53056;SDS011;38940;50.096;4.012;2023-05-10T04:13:01;6.57;;;1.30;;
53056;SDS011;38940;50.096;4.012;2023-05-10T04:15:27;4.47;;;0.90;;
53056;SDS011;38940;50.096;4.012;2023-05-10T04:17:53;4.18;;;1.20;;
53056;SDS011;38940;50.096;4.012;2023-05-10T04:20:19;3.95;;;1.10;;
53056;SDS011;38940;50.096;4.012;2023-05-10T04:22:45;4.72;;;1.10;;
53056;SDS011;38940;50.096;4.012;2023-05-10T04:25:11;9.00;;;1.35;;
53056;SDS011;38940;50.096;4.012;2023-05-10T04:27:37;5.10;;;1.13;;
53056;SDS011;38940;50.096;4.012;2023-05-10T04:30:04;5.32;;;1.02;;
53056;SDS011;38940;50.096;4.012;2023-05-10T04:32:30;5.68;;;1.10;;
53056;SDS011;38940;50.096;4.012;2023-05-10T04:34:56;8.45;;;1.40;;
53056;SDS011;38940;50.096;4.012;2023-05-10T04:37:22;6.40;;;1.80;;
53056;SDS011;38940;50.096;4.012;2023-05-10T04:39:48;5.25;;;1.33;;
53056;SDS011;38940;50.096;4.012;2023-05-10T04:42:15;5.72;;;1.48;;
53056;SDS011;38940;50.096;4.012;2023-05-10T04:44:41;3.97;;;1.43;;
53056;SDS011;38940;50.096;4.012;2023-05-10T04:47:07;6.78;;;1.33;;
53056;SDS011;38940;50.096;4.012;2023-05-10T04:49:33;5.63;;;1.40;;
53056;SDS011;38940;50.096;4.012;2023-05-10T04:51:59;3.92;;;1.23;;
53056;SDS011;38940;50.096;4.012;2023-05-10T04:54:25;7.20;;;1.50;;
53056;SDS011;38940;50.096;4.012;2023-05-10T04:56:51;5.88;;;1.30;;
53056;SDS011;38940;50.096;4.012;2023-05-10T04:59:17;2.80;;;1.00;;
53056;SDS011;38940;50.096;4.012;2023-05-10T05:01:43;5.80;;;1.30;;
53056;SDS011;38940;50.096;4.012;2023-05-10T05:04:09;6.70;;;1.40;;
53056;SDS011;38940;50.096;4.012;2023-05-10T05:06:35;4.22;;;1.00;;
53056;SDS011;38940;50.096;4.012;2023-05-10T05:09:01;4.30;;;0.95;;
53056;SDS011;38940;50.096;4.012;2023-05-10T05:11:27;3.22;;;1.20;;
53056;SDS011;38940;50.096;4.012;2023-05-10T05:13:53;4.67;;;1.00;;
53056;SDS011;38940;50.096;4.012;2023-05-10T05:16:19;4.67;;;1.30;;
53056;SDS011;38940;50.096;4.012;2023-05-10T05:18:46;8.45;;;1.25;;
53056;SDS011;38940;50.096;4.012;2023-05-10T05:21:15;5.90;;;1.30;;
53056;SDS011;38940;50.096;4.012;2023-05-10T05:23:42;4.22;;;0.90;;
53056;SDS011;38940;50.096;4.012;2023-05-10T05:26:08;4.47;;;1.05;;
53056;SDS011;38940;50.096;4.012;2023-05-10T05:28:34;3.75;;;1.10;;
53056;SDS011;38940;50.096;4.012;2023-05-10T05:31:02;4.38;;;1.00;;
53056;SDS011;38940;50.096;4.012;2023-05-10T05:33:28;5.88;;;1.00;;
53056;SDS011;38940;50.096;4.012;2023-05-10T05:36:00;3.72;;;0.90;;
53056;SDS011;38940;50.096;4.012;2023-05-10T05:38:26;3.40;;;0.77;;
53056;SDS011;38940;50.096;4.012;2023-05-10T05:40:52;3.33;;;0.85;;
53056;SDS011;38940;50.096;4.012;2023-05-10T05:43:18;5.47;;;1.00;;
53056;SDS011;38940;50.096;4.012;2023-05-10T05:45:44;3.63;;;0.98;;
53056;SDS011;38940;50.096;4.012;2023-05-10T05:48:12;3.50;;;1.00;;
53056;SDS011;38940;50.096;4.012;2023-05-10T05:50:38;2.72;;;0.80;;
53056;SDS011;38940;50.096;4.012;2023-05-10T05:53:04;4.22;;;1.00;;
53056;SDS011;38940;50.096;4.012;2023-05-10T05:55:30;4.50;;;1.00;;
53056;SDS011;38940;50.096;4.012;2023-05-10T05:57:57;4.45;;;0.88;;
53056;SDS011;38940;50.096;4.012;2023-05-10T06:00:23;5.07;;;1.10;;
53056;SDS011;38940;50.096;4.012;2023-05-10T06:02:49;4.85;;;1.30;;
53056;SDS011;38940;50.096;4.012;2023-05-10T06:05:15;3.53;;;1.00;;
53056;SDS011;38940;50.096;4.012;2023-05-10T06:07:41;3.90;;;1.10;;
53056;SDS011;38940;50.096;4.012;2023-05-10T06:10:07;6.97;;;1.30;;
53056;SDS011;38940;50.096;4.012;2023-05-10T06:12:34;6.68;;;1.40;;
53056;SDS011;38940;50.096;4.012;2023-05-10T06:15:00;6.53;;;1.80;;
53056;SDS011;38940;50.096;4.012;2023-05-10T06:17:26;5.53;;;1.50;;
53056;SDS011;38940;50.096;4.012;2023-05-10T06:19:52;7.00;;;2.00;;
53056;SDS011;38940;50.096;4.012;2023-05-10T06:22:18;8.40;;;2.00;;
53056;SDS011;38940;50.096;4.012;2023-05-10T06:24:44;5.68;;;1.50;;
53056;SDS011;38940;50.096;4.012;2023-05-10T06:27:10;7.67;;;1.47;;
53056;SDS011;38940;50.096;4.012;2023-05-10T06:29:36;6.38;;;1.48;;
53056;SDS011;38940;50.096;4.012;2023-05-10T06:32:02;7.05;;;1.60;;
53056;SDS011;38940;50.096;4.012;2023-05-10T06:34:28;6.57;;;1.50;;
53056;SDS011;38940;50.096;4.012;2023-05-10T06:36:54;4.38;;;1.50;;
53056;SDS011;38940;50.096;4.012;2023-05-10T06:39:20;5.43;;;1.30;;
53056;SDS011;38940;50.096;4.012;2023-05-10T06:41:47;7.55;;;1.75;;
53056;SDS011;38940;50.096;4.012;2023-05-10T06:44:13;7.28;;;1.70;;
53056;SDS011;38940;50.096;4.012;2023-05-10T06:46:39;5.93;;;1.55;;
53056;SDS011;38940;50.096;4.012;2023-05-10T06:49:06;7.23;;;1.50;;
53056;SDS011;38940;50.096;4.012;2023-05-10T06:51:32;6.18;;;1.58;;
53056;SDS011;38940;50.096;4.012;2023-05-10T06:53:58;3.83;;;1.37;;
53056;SDS011;38940;50.096;4.012;2023-05-10T06:56:25;5.15;;;1.30;;
53056;SDS011;38940;50.096;4.012;2023-05-10T06:58:51;5.63;;;1.40;;
53056;SDS011;38940;50.096;4.012;2023-05-10T07:01:17;6.22;;;1.10;;
53056;SDS011;38940;50.096;4.012;2023-05-10T07:03:42;3.88;;;1.23;;
53056;SDS011;38940;50.096;4.012;2023-05-10T07:06:08;5.70;;;1.50;;
53056;SDS011;38940;50.096;4.012;2023-05-10T07:08:35;6.93;;;1.38;;
53056;SDS011;38940;50.096;4.012;2023-05-10T07:11:05;5.47;;;1.25;;
53056;SDS011;38940;50.096;4.012;2023-05-10T07:13:35;8.07;;;1.75;;
53056;SDS011;38940;50.096;4.012;2023-05-10T07:16:01;8.60;;;1.92;;
53056;SDS011;38940;50.096;4.012;2023-05-10T07:18:27;7.22;;;1.40;;
53056;SDS011;38940;50.096;4.012;2023-05-10T07:20:54;7.43;;;1.60;;
53056;SDS011;38940;50.096;4.012;2023-05-10T07:23:20;4.78;;;1.50;;
53056;SDS011;38940;50.096;4.012;2023-05-10T07:25:46;6.50;;;1.60;;
53056;SDS011;38940;50.096;4.012;2023-05-10T07:28:13;6.43;;;1.63;;
53056;SDS011;38940;50.096;4.012;2023-05-10T07:30:39;9.20;;;1.70;;
53056;SDS011;38940;50.096;4.012;2023-05-10T07:33:06;8.40;;;1.80;;
53056;SDS011;38940;50.096;4.012;2023-05-10T07:35:33;5.72;;;1.70;;
53056;SDS011;38940;50.096;4.012;2023-05-10T07:37:59;10.50;;;2.03;;
53056;SDS011;38940;50.096;4.012;2023-05-10T07:40:25;7.05;;;1.85;;
53056;SDS011;38940;50.096;4.012;2023-05-10T07:42:51;8.52;;;1.75;;
53056;SDS011;38940;50.096;4.012;2023-05-10T07:45:17;7.73;;;1.70;;
53056;SDS011;38940;50.096;4.012;2023-05-10T07:47:43;6.35;;;2.30;;
53056;SDS011;38940;50.096;4.012;2023-05-10T07:50:09;9.73;;;2.00;;
53056;SDS011;38940;50.096;4.012;2023-05-10T07:52:36;7.25;;;1.70;;
53056;SDS011;38940;50.096;4.012;2023-05-10T07:55:02;9.02;;;1.92;;
53056;SDS011;38940;50.096;4.012;2023-05-10T07:57:28;7.53;;;1.80;;
53056;SDS011;38940;50.096;4.012;2023-05-10T07:59:54;7.90;;;2.20;;
53056;SDS011;38940;50.096;4.012;2023-05-10T08:02:20;7.20;;;2.17;;
53056;SDS011;38940;50.096;4.012;2023-05-10T08:04:45;7.80;;;2.10;;
53056;SDS011;38940;50.096;4.012;2023-05-10T08:07:12;9.00;;;2.42;;
53056;SDS011;38940;50.096;4.012;2023-05-10T08:09:38;8.03;;;2.20;;
53056;SDS011;38940;50.096;4.012;2023-05-10T08:12:04;5.97;;;2.30;;
53056;SDS011;38940;50.096;4.012;2023-05-10T08:14:30;8.32;;;2.40;;
53056;SDS011;38940;50.096;4.012;2023-05-10T08:16:56;8.77;;;2.10;;
53056;SDS011;38940;50.096;4.012;2023-05-10T08:19:22;6.68;;;2.00;;
53056;SDS011;38940;50.096;4.012;2023-05-10T08:21:48;9.50;;;2.15;;
53056;SDS011;38940;50.096;4.012;2023-05-10T08:24:14;9.23;;;2.38;;
53056;SDS011;38940;50.096;4.012;2023-05-10T08:26:40;9.50;;;2.65;;
53056;SDS011;38940;50.096;4.012;2023-05-10T08:29:06;8.43;;;2.22;;
53056;SDS011;38940;50.096;4.012;2023-05-10T08:31:33;12.15;;;2.53;;
53056;SDS011;38940;50.096;4.012;2023-05-10T08:33:59;9.45;;;2.10;;
53056;SDS011;38940;50.096;4.012;2023-05-10T08:36:25;8.93;;;2.40;;
53056;SDS011;38940;50.096;4.012;2023-05-10T08:38:51;8.90;;;2.40;;
53056;SDS011;38940;50.096;4.012;2023-05-10T08:41:19;8.40;;;2.43;;
53056;SDS011;38940;50.096;4.012;2023-05-10T08:43:46;9.77;;;2.42;;
53056;SDS011;38940;50.096;4.012;2023-05-10T08:46:15;8.32;;;2.47;;
53056;SDS011;38940;50.096;4.012;2023-05-10T08:48:43;6.15;;;2.08;;
53056;SDS011;38940;50.096;4.012;2023-05-10T08:51:09;6.80;;;2.03;;
53056;SDS011;38940;50.096;4.012;2023-05-10T08:53:35;7.28;;;2.28;;
53056;SDS011;38940;50.096;4.012;2023-05-10T08:56:02;6.57;;;2.30;;
53056;SDS011;38940;50.096;4.012;2023-05-10T08:58:28;4.57;;;1.98;;
53056;SDS011;38940;50.096;4.012;2023-05-10T09:00:54;6.65;;;2.28;;
53056;SDS011;38940;50.096;4.012;2023-05-10T09:03:21;7.47;;;2.28;;
53056;SDS011;38940;50.096;4.012;2023-05-10T09:05:47;9.13;;;1.98;;
53056;SDS011;38940;50.096;4.012;2023-05-10T09:08:13;8.82;;;2.10;;
53056;SDS011;38940;50.096;4.012;2023-05-10T09:10:41;5.63;;;1.90;;
53056;SDS011;38940;50.096;4.012;2023-05-10T09:13:08;7.35;;;1.95;;
53056;SDS011;38940;50.096;4.012;2023-05-10T09:15:35;6.65;;;1.95;;
53056;SDS011;38940;50.096;4.012;2023-05-10T09:18:01;4.57;;;1.63;;
53056;SDS011;38940;50.096;4.012;2023-05-10T09:20:27;4.88;;;1.70;;
53056;SDS011;38940;50.096;4.012;2023-05-10T09:22:53;5.03;;;1.80;;
53056;SDS011;38940;50.096;4.012;2023-05-10T09:25:19;6.22;;;1.85;;
53056;SDS011;38940;50.096;4.012;2023-05-10T09:27:47;6.03;;;1.85;;
53056;SDS011;38940;50.096;4.012;2023-05-10T09:30:16;5.17;;;1.63;;
53056;SDS011;38940;50.096;4.012;2023-05-10T09:32:43;3.85;;;1.92;;
53056;SDS011;38940;50.096;4.012;2023-05-10T09:35:14;7.40;;;1.92;;
53056;SDS011;38940;50.096;4.012;2023-05-10T09:37:41;4.15;;;1.90;;
53056;SDS011;38940;50.096;4.012;2023-05-10T09:40:10;6.67;;;2.20;;
53056;SDS011;38940;50.096;4.012;2023-05-10T09:42:37;5.50;;;2.22;;
53056;SDS011;38940;50.096;4.012;2023-05-10T09:45:06;6.50;;;2.55;;
53056;SDS011;38940;50.096;4.012;2023-05-10T09:47:34;6.00;;;2.20;;
53056;SDS011;38940;50.096;4.012;2023-05-10T09:50:00;5.65;;;1.98;;
53056;SDS011;38940;50.096;4.012;2023-05-10T09:52:30;5.10;;;2.10;;
53056;SDS011;38940;50.096;4.012;2023-05-10T09:54:57;3.80;;;2.28;;
53056;SDS011;38940;50.096;4.012;2023-05-10T09:57:23;6.03;;;2.35;;
53056;SDS011;38940;50.096;4.012;2023-05-10T09:59:50;5.30;;;2.03;;
53056;SDS011;38940;50.096;4.012;2023-05-10T10:02:19;5.97;;;2.13;;
53056;SDS011;38940;50.096;4.012;2023-05-10T10:04:45;4.40;;;1.95;;
53056;SDS011;38940;50.096;4.012;2023-05-10T10:07:15;5.57;;;2.00;;
53056;SDS011;38940;50.096;4.012;2023-05-10T10:09:47;3.35;;;1.90;;
53056;SDS011;38940;50.096;4.012;2023-05-10T10:12:13;5.75;;;1.95;;
53056;SDS011;38940;50.096;4.012;2023-05-10T10:14:40;4.88;;;2.38;;
53056;SDS011;38940;50.096;4.012;2023-05-10T10:17:06;3.50;;;1.93;;
53056;SDS011;38940;50.096;4.012;2023-05-10T10:19:35;4.50;;;1.70;;
53056;SDS011;38940;50.096;4.012;2023-05-10T10:22:01;3.80;;;1.70;;
53056;SDS011;38940;50.096;4.012;2023-05-10T10:24:27;5.45;;;2.17;;
53056;SDS011;38940;50.096;4.012;2023-05-10T10:26:54;3.20;;;1.30;;
53056;SDS011;38940;50.096;4.012;2023-05-10T10:32:21;2.90;;;1.60;;
53056;SDS011;38940;50.096;4.012;2023-05-10T10:34:51;4.00;;;2.58;;
53056;SDS011;38940;50.096;4.012;2023-05-10T10:37:17;3.40;;;2.40;;
53056;SDS011;38940;50.096;4.012;2023-05-10T10:39:43;3.22;;;1.70;;
53056;SDS011;38940;50.096;4.012;2023-05-10T10:42:09;6.60;;;2.10;;
53056;SDS011;38940;50.096;4.012;2023-05-10T10:44:36;2.20;;;1.27;;
53056;SDS011;38940;50.096;4.012;2023-05-10T10:49:37;3.50;;;1.80;;
53056;SDS011;38940;50.096;4.012;2023-05-10T10:54:52;4.25;;;2.00;;
53056;SDS011;38940;50.096;4.012;2023-05-10T10:57:19;3.90;;;2.47;;
53056;SDS011;38940;50.096;4.012;2023-05-10T10:59:46;6.47;;;3.90;;
53056;SDS011;38940;50.096;4.012;2023-05-10T11:04:57;4.63;;;2.50;;
53056;SDS011;38940;50.096;4.012;2023-05-10T11:07:24;3.50;;;1.20;;
53056;SDS011;38940;50.096;4.012;2023-05-10T11:09:50;2.40;;;1.10;;
53056;SDS011;38940;50.096;4.012;2023-05-10T11:12:16;4.17;;;1.73;;
53056;SDS011;38940;50.096;4.012;2023-05-10T11:14:42;2.95;;;1.30;;
53056;SDS011;38940;50.096;4.012;2023-05-10T11:17:24;2.50;;;1.40;;
53056;SDS011;38940;50.096;4.012;2023-05-10T11:20:06;2.25;;;1.50;;
53056;SDS011;38940;50.096;4.012;2023-05-10T11:22:44;2.03;;;1.30;;
53056;SDS011;38940;50.096;4.012;2023-05-10T11:25:15;3.80;;;1.50;;
53056;SDS011;38940;50.096;4.012;2023-05-10T11:27:41;1.90;;;0.88;;
53056;SDS011;38940;50.096;4.012;2023-05-10T11:30:09;2.45;;;1.40;;
53056;SDS011;38940;50.096;4.012;2023-05-10T11:32:38;2.90;;;1.30;;
53056;SDS011;38940;50.096;4.012;2023-05-10T11:35:08;2.65;;;1.10;;
53056;SDS011;38940;50.096;4.012;2023-05-10T11:37:34;1.73;;;1.23;;
53056;SDS011;38940;50.096;4.012;2023-05-10T11:40:00;1.52;;;0.90;;
53056;SDS011;38940;50.096;4.012;2023-05-10T11:42:27;3.47;;;1.10;;
53056;SDS011;38940;50.096;4.012;2023-05-10T11:44:54;2.50;;;0.90;;
53056;SDS011;38940;50.096;4.012;2023-05-10T11:47:20;1.35;;;1.00;;
53056;SDS011;38940;50.096;4.012;2023-05-10T11:49:46;3.40;;;0.80;;
53056;SDS011;38940;50.096;4.012;2023-05-10T11:52:12;1.48;;;0.70;;
53056;SDS011;38940;50.096;4.012;2023-05-10T11:55:12;1.52;;;0.70;;
53056;SDS011;38940;50.096;4.012;2023-05-10T11:57:31;0.98;;;0.70;;
53056;SDS011;38940;50.096;4.012;2023-05-10T11:59:57;2.60;;;0.82;;
53056;SDS011;38940;50.096;4.012;2023-05-10T12:02:23;1.17;;;0.80;;
53056;SDS011;38940;50.096;4.012;2023-05-10T12:04:49;2.70;;;1.10;;
53056;SDS011;38940;50.096;4.012;2023-05-10T12:07:16;3.20;;;0.80;;
53056;SDS011;38940;50.096;4.012;2023-05-10T12:10:02;1.50;;;0.60;;
53056;SDS011;38940;50.096;4.012;2023-05-10T12:12:34;1.10;;;0.60;;
53056;SDS011;38940;50.096;4.012;2023-05-10T12:15:01;2.47;;;1.50;;
53056;SDS011;38940;50.096;4.012;2023-05-10T12:17:28;2.43;;;1.47;;
53056;SDS011;38940;50.096;4.012;2023-05-10T12:19:58;1.50;;;1.15;;
53056;SDS011;38940;50.096;4.012;2023-05-10T12:22:25;3.63;;;1.98;;
53056;SDS011;38940;50.096;4.012;2023-05-10T12:24:51;2.53;;;1.60;;
53056;SDS011;38940;50.096;4.012;2023-05-10T12:27:17;3.88;;;1.10;;
53056;SDS011;38940;50.096;4.012;2023-05-10T12:29:43;3.13;;;1.65;;
53056;SDS011;38940;50.096;4.012;2023-05-10T12:32:09;4.18;;;2.10;;
53056;SDS011;38940;50.096;4.012;2023-05-10T12:34:41;3.17;;;1.42;;
53056;SDS011;38940;50.096;4.012;2023-05-10T12:37:07;3.53;;;1.90;;
53056;SDS011;38940;50.096;4.012;2023-05-10T12:39:43;1.35;;;0.93;;
53056;SDS011;38940;50.096;4.012;2023-05-10T12:42:09;2.60;;;1.25;;
53056;SDS011;38940;50.096;4.012;2023-05-10T12:44:36;4.00;;;1.40;;
53056;SDS011;38940;50.096;4.012;2023-05-10T12:47:02;3.55;;;1.58;;
53056;SDS011;38940;50.096;4.012;2023-05-10T12:49:28;2.90;;;1.00;;
53056;SDS011;38940;50.096;4.012;2023-05-10T12:51:54;2.63;;;1.10;;
53056;SDS011;38940;50.096;4.012;2023-05-10T12:54:20;1.70;;;0.98;;
53056;SDS011;38940;50.096;4.012;2023-05-10T12:56:46;1.30;;;0.90;;
53056;SDS011;38940;50.096;4.012;2023-05-10T12:59:12;1.35;;;1.00;;
53056;SDS011;38940;50.096;4.012;2023-05-10T13:01:38;2.17;;;1.20;;
53056;SDS011;38940;50.096;4.012;2023-05-10T13:04:04;1.50;;;1.10;;
53056;SDS011;38940;50.096;4.012;2023-05-10T13:06:30;2.58;;;0.80;;
53056;SDS011;38940;50.096;4.012;2023-05-10T13:08:56;1.63;;;0.70;;
53056;SDS011;38940;50.096;4.012;2023-05-10T13:11:22;1.73;;;0.63;;
53056;SDS011;38940;50.096;4.012;2023-05-10T13:13:48;0.55;;;0.40;;
53056;SDS011;38940;50.096;4.012;2023-05-10T13:16:14;2.42;;;0.57;;
53056;SDS011;38940;50.096;4.012;2023-05-10T13:18:40;0.90;;;0.70;;
53056;SDS011;38940;50.096;4.012;2023-05-10T13:21:06;0.70;;;0.40;;
53056;SDS011;38940;50.096;4.012;2023-05-10T13:23:33;1.80;;;0.70;;
53056;SDS011;38940;50.096;4.012;2023-05-10T13:25:59;1.13;;;0.70;;
53056;SDS011;38940;50.096;4.012;2023-05-10T13:28:25;2.70;;;0.90;;
53056;SDS011;38940;50.096;4.012;2023-05-10T13:30:51;0.73;;;0.60;;
53056;SDS011;38940;50.096;4.012;2023-05-10T13:33:17;1.00;;;0.47;;
53056;SDS011;38940;50.096;4.012;2023-05-10T13:35:43;0.73;;;0.50;;
53056;SDS011;38940;50.096;4.012;2023-05-10T13:38:09;0.85;;;0.70;;
53056;SDS011;38940;50.096;4.012;2023-05-10T13:40:35;0.80;;;0.52;;
53056;SDS011;38940;50.096;4.012;2023-05-10T13:43:01;0.77;;;0.60;;
53056;SDS011;38940;50.096;4.012;2023-05-10T13:45:27;2.80;;;0.80;;
53056;SDS011;38940;50.096;4.012;2023-05-10T13:47:53;3.08;;;1.65;;
53056;SDS011;38940;50.096;4.012;2023-05-10T13:50:19;1.95;;;1.42;;
53056;SDS011;38940;50.096;4.012;2023-05-10T13:52:45;1.63;;;0.60;;
53056;SDS011;38940;50.096;4.012;2023-05-10T13:55:12;0.80;;;0.50;;
53056;SDS011;38940;50.096;4.012;2023-05-10T13:57:38;0.47;;;0.47;;
53056;SDS011;38940;50.096;4.012;2023-05-10T14:00:04;0.50;;;0.50;;
53056;SDS011;38940;50.096;4.012;2023-05-10T14:02:30;0.93;;;0.40;;
53056;SDS011;38940;50.096;4.012;2023-05-10T14:04:56;0.80;;;0.50;;
53056;SDS011;38940;50.096;4.012;2023-05-10T14:07:22;0.55;;;0.40;;
53056;SDS011;38940;50.096;4.012;2023-05-10T14:09:48;0.80;;;0.50;;
53056;SDS011;38940;50.096;4.012;2023-05-10T14:12:14;2.17;;;0.50;;
53056;SDS011;38940;50.096;4.012;2023-05-10T14:14:41;0.70;;;0.50;;
53056;SDS011;38940;50.096;4.012;2023-05-10T14:17:07;2.40;;;1.27;;
53056;SDS011;38940;50.096;4.012;2023-05-10T14:19:33;1.38;;;0.50;;
53056;SDS011;38940;50.096;4.012;2023-05-10T14:21:59;1.40;;;0.50;;
53056;SDS011;38940;50.096;4.012;2023-05-10T14:24:25;0.80;;;0.60;;
53056;SDS011;38940;50.096;4.012;2023-05-10T14:26:51;2.17;;;1.60;;
53056;SDS011;38940;50.096;4.012;2023-05-10T14:29:19;1.47;;;1.10;;
53056;SDS011;38940;50.096;4.012;2023-05-10T14:31:45;1.42;;;1.17;;
53056;SDS011;38940;50.096;4.012;2023-05-10T14:34:11;3.10;;;1.40;;
53056;SDS011;38940;50.096;4.012;2023-05-10T14:36:37;2.13;;;1.20;;
53056;SDS011;38940;50.096;4.012;2023-05-10T14:39:03;2.10;;;1.47;;
53056;SDS011;38940;50.096;4.012;2023-05-10T14:41:30;2.55;;;1.30;;
53056;SDS011;38940;50.096;4.012;2023-05-10T14:43:56;2.20;;;1.20;;
53056;SDS011;38940;50.096;4.012;2023-05-10T14:46:22;3.38;;;1.50;;
53056;SDS011;38940;50.096;4.012;2023-05-10T14:48:48;2.05;;;1.27;;
53056;SDS011;38940;50.096;4.012;2023-05-10T14:51:14;2.50;;;1.42;;
53056;SDS011;38940;50.096;4.012;2023-05-10T14:53:40;3.45;;;1.50;;
53056;SDS011;38940;50.096;4.012;2023-05-10T14:56:06;3.10;;;1.20;;
53056;SDS011;38940;50.096;4.012;2023-05-10T14:58:32;4.37;;;1.50;;
53056;SDS011;38940;50.096;4.012;2023-05-10T15:00:58;4.60;;;1.50;;
53056;SDS011;38940;50.096;4.012;2023-05-10T15:03:24;3.08;;;1.60;;
53056;SDS011;38940;50.096;4.012;2023-05-10T15:05:50;2.92;;;1.60;;
53056;SDS011;38940;50.096;4.012;2023-05-10T15:08:17;3.45;;;1.80;;
53056;SDS011;38940;50.096;4.012;2023-05-10T15:10:43;5.13;;;1.60;;
53056;SDS011;38940;50.096;4.012;2023-05-10T15:13:09;2.70;;;1.58;;